Latest Coastal Weather Observations for Port Lincoln Airport

IDS60701

Issued at 11:11 am CST Friday 23 June 2017 (issued every 10 minutes, with the page automatically refreshed every 10 minutes)

About coastal observations | Map of coastal stations | Coastal observations for SA | Marine services | Other Formats
Station Details ID: 018192 Name: PORT LINCOLN AWS Lat: -34.60 Lon: 135.88 Height: 8.5 m
Data from the previous 72 hours. | See also: Recent months at Port Lincoln Airport
Date/Time
CST
Temp
°C
Wind Pressure Rain since
9am
mm
Weather Cloud Vis
km
Sea
Height
m
Swell
Dir  Spd
kts
Gust
kts
hPa Trend Height
m
Period
s
Dir
23/11:00am 18.1 NW 6 8 1018.6 - 0.0 - Partly cloudy 10 - - - -
23/10:30am 17.2 N 5 7 1018.6 - 0.0 - Cloudy 10 - - - -
23/10:00am 16.3 N 7 10 1018.6 - 0.0 - Partly cloudy 10 - - - -
23/09:30am 14.9 NNW 7 9 1018.6 - 0.0 - Cloudy 10 - - - -
23/09:00am 13.3 NNW 8 11 1018.5 - 0.0 - Mostly cloudy 10 - - - -
23/08:30am 12.2 NW 5 7 1018.1 - 0.0 - - 10 - - - -
23/08:00am 10.7 WNW 6 7 1018.2 - 0.0 - - 10 - - - -
23/07:30am 11.9 WNW 5 6 1017.7 - 0.0 - Partly cloudy 10 - - - -
23/07:00am 11.9 NW 6 8 1017.6 - 0.0 - Cloudy 10 - - - -
23/06:30am 12.0 NW 7 8 1017.6 - 0.0 - Cloudy 10 - - - -
23/06:00am 12.6 NW 9 11 1017.5 - 0.0 - Mostly cloudy 10 - - - -
23/05:30am 12.1 NW 9 13 1017.2 - 0.0 - - 10 - - - -
23/05:00am 12.4 WNW 8 11 1017.2 - 0.0 - Partly cloudy 10 - - - -
23/04:30am 11.6 WNW 7 10 1017.7 - 0.0 - Partly cloudy 10 - - - -
23/04:00am 11.2 NW 7 11 1017.8 - 0.0 - Partly cloudy 10 - - - -
23/03:30am 11.4 WNW 7 8 1018.0 - 0.0 - - 10 - - - -
23/03:00am 11.1 WNW 8 10 1018.3 - 0.0 - Cloudy 10 - - - -
23/02:30am 10.8 WNW 8 11 1018.8 - 0.0 - Partly cloudy 10 - - - -
23/02:00am 10.8 WNW 8 11 1018.8 - 0.0 - Partly cloudy 10 - - - -
23/01:30am 9.8 NW 5 8 1018.7 - 0.0 - - 10 - - - -
23/01:00am 8.4 NW 8 10 1018.8 - 0.0 - - 10 - - - -
23/12:30am 8.0 NNW 9 10 1019.1 - 0.0 - - 10 - - - -
23/12:00am 8.2 NW 8 8 1019.6 - 0.0 - - 10 - - - -
 
Date/Time
CST
Temp
°C
Wind Pressure Rain since
9am
mm
Weather Cloud Vis
km
Sea
Height
m
Swell
Dir  Spd
kts
Gust
kts
hPa Trend Height
m
Period
s
Dir
22/11:30pm 8.4 NW 7 9 1019.9 - 0.0 - Partly cloudy 10 - - - -
22/11:00pm 10.2 NW 6 7 1019.9 - 0.0 - Cloudy 10 - - - -
22/10:30pm 10.5 NW 7 8 1020.4 - 0.0 - Cloudy 10 - - - -
22/10:00pm 8.6 NW 6 7 1020.5 - 0.0 - Partly cloudy 10 - - - -
22/09:30pm 8.2 NW 7 8 1020.9 - 0.0 - Partly cloudy 10 - - - -
22/09:00pm 8.4 NNW 6 7 1021.0 - 0.0 - Partly cloudy 10 - - - -
22/08:30pm 7.4 NW 7 9 1020.9 - 0.0 - Partly cloudy 10 - - - -
22/08:00pm 7.5 NW 4 5 1020.6 - 0.0 - - 10 - - - -
22/07:30pm 9.6 NW 4 6 1020.8 - 0.0 - - 10 - - - -
22/07:00pm 9.5 WNW 5 6 1020.7 - 0.0 - - 10 - - - -
22/06:30pm 11.6 ENE 2 4 1020.4 - 0.0 - - 10 - - - -
22/06:00pm 12.7 WSW 6 7 1020.3 - 0.0 - - 10 - - - -
22/05:30pm 14.6 SW 5 6 1020.2 - 0.0 - - 10 - - - -
22/05:00pm 17.2 WSW 6 7 1020.4 - 0.0 - - 10 - - - -
22/04:30pm 19.1 WNW 7 10 1020.5 - 0.0 - - 10 - - - -
22/04:00pm 19.4 NW 11 15 1020.5 - 0.0 - - 10 - - - -
22/03:30pm 19.9 WNW 10 14 1020.4 - 0.0 - - 10 - - - -
22/03:00pm 20.2 NW 10 15 1020.5 - 0.0 - - 10 - - - -
22/02:30pm 20.5 NNW 9 12 1020.7 - 0.0 - - 10 - - - -
22/02:00pm 20.1 NW 9 13 1021.0 - 0.0 - - 10 - - - -
22/01:30pm 20.3 WNW 8 14 1021.2 - 0.0 - - 10 - - - -
22/01:00pm 19.9 NW 7 12 1021.7 - 0.0 - - 10 - - - -
22/12:30pm 19.7 NNW 8 12 1022.2 - 0.0 - - 10 - - - -
22/12:00pm 19.6 NNW 8 11 1022.8 - 0.0 - - 10 - - - -
22/11:30am 19.2 N 7 11 1023.6 - 0.0 - - 10 - - - -
22/11:00am 17.9 N 8 10 1024.2 - 0.0 - - 10 - - - -
22/10:30am 16.5 N 6 9 1024.8 - 0.0 - - 10 - - - -
22/10:00am 14.7 NNW 7 9 1025.0 - 0.0 - - 10 - - - -
22/09:30am 12.0 NW 8 10 1025.0 - 0.0 - - 10 - - - -
22/09:00am 9.1 NNW 10 11 1025.1 - 0.0 - - 10 - - - -
22/08:30am 8.3 NNW 9 11 1025.1 - 0.0 - - 10 - - - -
22/08:00am 5.5 NW 7 9 1024.9 - 0.0 - - 10 - - - -
22/07:30am 5.2 NW 3 5 1024.7 - 0.0 - - 10 - - - -
22/07:00am 4.2 NNW 6 8 1024.5 - 0.0 - - 10 - - - -
22/06:30am 4.9 NW 6 8 1024.2 - 0.0 - - 10 - - - -
22/06:00am 4.4 NW 7 8 1024.2 - 0.0 - - 10 - - - -
22/05:30am 4.7 NW 6 8 1024.3 - 0.0 - - 10 - - - -
22/05:27am 4.5 NW 6 7 1024.2 - 0.0 - - 10 - - - -
22/05:12am 5.0 NW 6 7 1024.0 - 0.0 - - 5 - - - -
22/05:00am 5.3 NW 6 7 1024.0 - 0.0 - Partly cloudy 8 - - - -
22/04:42am 5.4 NW 6 7 1024.1 - 0.0 - Partly cloudy 10 - - - -
22/04:30am 5.2 NW 5 5 1024.1 - 0.0 - Partly cloudy 4 - - - -
22/04:00am 5.7 NW 4 6 1024.0 - 0.0 - Partly cloudy 6 - - - -
22/03:30am 5.6 WNW 5 7 1024.3 - 0.0 - - 2 - - - -
22/03:25am 6.0 NW 5 6 1024.2 - 0.0 - - 5 - - - -
22/03:00am 6.9 NW 4 5 1024.4 - 0.0 - Cloudy 8 - - - -
22/02:30am 7.1 NW 6 7 1024.6 - 0.0 - - 10 - - - -
22/02:00am 6.3 NW 7 8 1024.7 - 0.0 - - 9 - - - -
22/01:30am 6.7 NW 7 7 1024.9 - 0.0 - - 10 - - - -
22/01:00am 7.0 NW 6 8 1025.2 - 0.0 - - 10 - - - -
22/12:30am 6.7 NW 6 7 1025.6 - 0.0 - - 10 - - - -
22/12:00am 6.4 NW 6 7 1025.8 - 0.0 - Mostly cloudy 10 - - - -
 
Date/Time
CST
Temp
°C
Wind Pressure Rain since
9am
mm
Weather Cloud Vis
km
Sea
Height
m
Swell
Dir  Spd
kts
Gust
kts
hPa Trend Height
m
Period
s
Dir
21/11:30pm 7.4 NW 8 8 1026.0 - 0.0 - - 10 - - - -
21/11:00pm 6.3 NW 6 7 1026.1 - 0.0 - - 10 - - - -
21/10:30pm 6.5 NW 6 7 1026.3 - 0.0 - - 10 - - - -
21/10:00pm 6.4 NW 5 6 1026.5 - 0.0 - - 10 - - - -
21/09:30pm 7.5 NW 6 7 1026.6 - 0.0 - - 10 - - - -
21/09:00pm 7.5 NW 7 8 1026.7 - 0.0 - - 10 - - - -
21/08:30pm 7.7 WNW 5 6 1026.7 - 0.0 - - 10 - - - -
21/08:00pm 7.4 NW 5 5 1026.6 - 0.0 - - 10 - - - -
21/07:30pm 8.2 NW 4 5 1026.6 - 0.0 - - 10 - - - -
21/07:00pm 9.1 NW 5 6 1026.4 - 0.0 - - 10 - - - -
21/06:30pm 9.5 NNW 3 4 1026.1 - 0.0 - - 10 - - - -
21/06:00pm 11.2 N 3 4 1025.9 - 0.0 - - 10 - - - -
21/05:30pm 13.1 NE 5 6 1025.8 - 0.0 - - 10 - - - -
21/05:00pm 14.8 ENE 7 9 1025.7 - 0.0 - - 10 - - - -
21/04:30pm 16.0 E 8 10 1025.8 - 0.0 - - 10 - - - -
21/04:00pm 16.7 E 9 11 1026.0 - 0.0 - - 10 - - - -
21/03:30pm 17.5 E 9 11 1026.2 - 0.0 - - 10 - - - -
21/03:00pm 17.6 E 9 11 1026.2 - 0.0 - - 10 - - - -
21/02:30pm 17.5 ENE 9 11 1026.3 - 0.0 - - 10 - - - -
21/02:00pm 18.3 ENE 9 11 1026.5 - 0.0 - - 10 - - - -
21/01:30pm 18.1 ENE 10 12 1026.7 - 0.0 - - 10 - - - -
21/01:00pm 17.9 ENE 10 13 1026.9 - 0.0 - - 10 - - - -
21/12:30pm 18.0 ENE 9 11 1027.4 - 0.0 - - 10 - - - -
21/12:00pm 18.1 ENE 9 11 1027.8 - 0.0 - - 10 - - - -
21/11:30am 17.5 ENE 8 10 1028.3 - 0.0 - - 10 - - - -
21/11:00am 17.3 NNE 5 7 1028.8 - 0.0 - - 10 - - - -
21/10:30am 15.8 N 4 5 1028.7 - 0.0 - - 10 - - - -
21/10:00am 12.6 NNW 5 6 1028.9 - 0.0 - - 10 - - - -
21/09:30am 10.2 NNW 5 7 1029.1 - 0.0 - - 10 - - - -
21/09:00am 8.5 NNW 6 7 1028.7 - 0.2 - - 10 - - - -
21/08:30am 7.1 NW 6 8 1028.3 - 0.2 - - 10 - - - -
21/08:00am 5.4 NW 7 9 1028.2 - 0.2 - - 10 - - - -
21/07:30am 4.9 NW 7 7 1028.0 - 0.2 - - 10 - - - -
21/07:00am 4.9 NW 7 8 1027.6 - 0.2 - - 10 - - - -
21/06:30am 4.8 NW 7 8 1027.3 - 0.2 - - 10 - - - -
21/06:00am 4.8 NW 6 7 1027.3 - 0.2 - - 10 - - - -
21/05:30am 5.6 NW 8 11 1027.2 - 0.2 - - 10 - - - -
21/05:00am 6.1 NW 9 12 1027.3 - 0.2 - - 10 - - - -
21/04:30am 5.7 NNW 7 8 1027.3 - 0.2 - - 10 - - - -
21/04:00am 6.0 NNW 6 7 1027.4 - 0.0 - - 10 - - - -
21/03:30am 6.5 NW 7 8 1027.2 - 0.0 - - 10 - - - -
21/03:00am 6.7 NW 7 8 1027.0 - 0.0 - - 10 - - - -
21/02:30am 8.0 NW 8 10 1026.9 - 0.0 - - 10 - - - -
21/02:00am 7.6 NW 7 8 1026.9 - 0.0 - - 10 - - - -
21/01:30am 8.1 NW 6 8 1026.9 - 0.0 - - 10 - - - -
21/01:00am 8.5 NW 7 9 1026.8 - 0.0 - - 10 - - - -
21/12:30am 8.9 NNW 7 10 1026.9 - 0.0 - - 10 - - - -
21/12:00am 9.0 NW 5 8 1027.0 - 0.0 - - 10 - - - -
 
Date/Time
CST
Temp
°C
Wind Pressure Rain since
9am
mm
Weather Cloud Vis
km
Sea
Height
m
Swell
Dir  Spd
kts
Gust
kts
hPa Trend Height
m
Period
s
Dir
20/11:30pm 9.5 NNW 7 9 1027.0 - 0.0 - - 10 - - - -
20/11:00pm 8.9 NNW 6 7 1026.9 - 0.0 - - 10 - - - -
20/10:30pm 9.5 NW 5 7 1026.8 - 0.0 - - 10 - - - -
20/10:00pm 9.2 NW 5 7 1026.9 - 0.0 - - 10 - - - -
20/09:30pm 9.5 NNW 3 4 1027.0 - 0.0 - - 10 - - - -
20/09:00pm 9.7 NW 4 4 1026.9 - 0.0 - - 10 - - - -
20/08:30pm 10.1 NW 4 6 1026.8 - 0.0 - - 10 - - - -
20/08:00pm 11.9 NNW 7 8 1026.6 - 0.0 - - 10 - - - -
20/07:30pm 12.0 NNW 6 8 1026.6 - 0.0 - - 10 - - - -
20/07:00pm 11.9 NW 10 12 1026.4 - 0.0 - - 10 - - - -
20/06:30pm 11.9 WNW 9 10 1026.1 - 0.0 - - 10 - - - -
20/06:00pm 12.7 WNW 7 8 1025.9 - 0.0 - - 10 - - - -
20/05:30pm 14.9 WNW 8 9 1025.7 - 0.0 - - 10 - - - -
20/05:00pm 17.3 WNW 9 10 1025.6 - 0.0 - - 10 - - - -
20/04:30pm 18.3 W 11 13 1025.5 - 0.0 - - 10 - - - -
20/04:00pm 19.2 W 10 13 1025.4 - 0.0 - - 10 - - - -
20/03:30pm 19.4 W 12 15 1025.5 - 0.0 - - 10 - - - -
20/03:00pm 20.0 W 12 17 1025.5 - 0.0 - - 10 - - - -
20/02:30pm 20.2 WNW 12 17 1025.5 - 0.0 - - 10 - - - -
20/02:00pm 19.9 WNW 13 18 1025.5 - 0.0 - - 10 - - - -
20/01:30pm 20.5 W 13 20 1025.6 - 0.0 - - 10 - - - -
20/01:00pm 21.0 W 12 16 1025.6 - 0.0 - - 10 - - - -
20/12:30pm 20.3 NW 11 16 1026.0 - 0.0 - - 10 - - - -
20/12:00pm 19.5 NW 14 19 1026.5 - 0.0 - - 10 - - - -
20/11:30am 19.3 NW 13 16 1027.0 - 0.0 - - 10 - - - -

Other Formats:

Comma delimited format used in spreadsheet applications
http://www.bom.gov.au/fwo/IDS60701/IDS60701.95661.axf

JavaScript Object Notation format (JSON) in row-major order
http://www.bom.gov.au/fwo/IDS60701/IDS60701.95661.json